sensor_id;sensor_type;location;lat;lon;timestamp;temperature;humidity
947;DHT22;460;48.734;9.152;2022-09-27T00:00:07;10.40;99.90
947;DHT22;460;48.734;9.152;2022-09-27T00:02:36;10.40;99.90
947;DHT22;460;48.734;9.152;2022-09-27T00:05:03;10.30;99.90
947;DHT22;460;48.734;9.152;2022-09-27T00:07:30;10.40;99.90
947;DHT22;460;48.734;9.152;2022-09-27T00:09:58;10.30;99.90
947;DHT22;460;48.734;9.152;2022-09-27T00:12:26;10.40;99.90
947;DHT22;460;48.734;9.152;2022-09-27T00:14:54;10.50;99.90
947;DHT22;460;48.734;9.152;2022-09-27T00:17:21;10.50;99.90
947;DHT22;460;48.734;9.152;2022-09-27T00:19:48;10.40;99.90
947;DHT22;460;48.734;9.152;2022-09-27T00:22:15;10.40;99.90
947;DHT22;460;48.734;9.152;2022-09-27T00:24:42;10.50;99.90
947;DHT22;460;48.734;9.152;2022-09-27T00:27:09;10.40;99.90
947;DHT22;460;48.734;9.152;2022-09-27T00:29:37;10.40;99.90
947;DHT22;460;48.734;9.152;2022-09-27T00:32:04;10.40;99.90
947;DHT22;460;48.734;9.152;2022-09-27T00:34:31;10.30;99.90
947;DHT22;460;48.734;9.152;2022-09-27T00:36:58;10.30;99.90
947;DHT22;460;48.734;9.152;2022-09-27T00:39:25;10.40;99.90
947;DHT22;460;48.734;9.152;2022-09-27T00:41:52;10.40;99.90
947;DHT22;460;48.734;9.152;2022-09-27T00:47:40;10.40;99.90
947;DHT22;460;48.734;9.152;2022-09-27T00:50:16;10.30;99.90
947;DHT22;460;48.734;9.152;2022-09-27T00:52:49;10.20;99.90
947;DHT22;460;48.734;9.152;2022-09-27T00:55:24;10.20;99.90
947;DHT22;460;48.734;9.152;2022-09-27T00:57:52;10.30;99.90
947;DHT22;460;48.734;9.152;2022-09-27T01:00:20;10.20;99.90
947;DHT22;460;48.734;9.152;2022-09-27T01:02:51;10.30;99.90
947;DHT22;460;48.734;9.152;2022-09-27T01:05:20;10.30;99.90
947;DHT22;460;48.734;9.152;2022-09-27T01:07:48;10.30;99.90
947;DHT22;460;48.734;9.152;2022-09-27T01:10:17;10.40;99.90
947;DHT22;460;48.734;9.152;2022-09-27T01:12:55;10.30;99.90
947;DHT22;460;48.734;9.152;2022-09-27T01:15:30;10.40;99.90
947;DHT22;460;48.734;9.152;2022-09-27T01:18:14;10.40;99.90
947;DHT22;460;48.734;9.152;2022-09-27T01:21:15;10.30;99.90
947;DHT22;460;48.734;9.152;2022-09-27T01:27:03;10.20;99.90
947;DHT22;460;48.734;9.152;2022-09-27T01:29:47;10.30;99.90
947;DHT22;460;48.734;9.152;2022-09-27T01:32:20;10.30;99.90
947;DHT22;460;48.734;9.152;2022-09-27T01:34:57;10.30;99.90
947;DHT22;460;48.734;9.152;2022-09-27T01:37:34;10.30;99.90
947;DHT22;460;48.734;9.152;2022-09-27T01:40:08;10.40;99.90
947;DHT22;460;48.734;9.152;2022-09-27T01:42:39;10.30;99.90
947;DHT22;460;48.734;9.152;2022-09-27T01:45:11;10.20;99.90
947;DHT22;460;48.734;9.152;2022-09-27T01:47:43;10.30;99.90
947;DHT22;460;48.734;9.152;2022-09-27T01:50:14;10.20;99.90
947;DHT22;460;48.734;9.152;2022-09-27T01:52:48;10.20;99.90
947;DHT22;460;48.734;9.152;2022-09-27T01:55:18;10.20;99.90
947;DHT22;460;48.734;9.152;2022-09-27T01:57:54;10.30;99.90
947;DHT22;460;48.734;9.152;2022-09-27T02:00:22;10.30;99.90
947;DHT22;460;48.734;9.152;2022-09-27T02:02:54;10.30;99.90
947;DHT22;460;48.734;9.152;2022-09-27T02:05:25;10.30;99.90
947;DHT22;460;48.734;9.152;2022-09-27T02:07:57;10.40;99.90
947;DHT22;460;48.734;9.152;2022-09-27T02:10:30;10.40;99.90
947;DHT22;460;48.734;9.152;2022-09-27T02:13:04;10.30;99.90
947;DHT22;460;48.734;9.152;2022-09-27T02:15:43;10.30;99.90
947;DHT22;460;48.734;9.152;2022-09-27T02:18:17;10.20;99.90
947;DHT22;460;48.734;9.152;2022-09-27T02:20:49;10.30;99.90
947;DHT22;460;48.734;9.152;2022-09-27T02:23:20;10.30;99.90
947;DHT22;460;48.734;9.152;2022-09-27T02:25:53;10.30;99.90
947;DHT22;460;48.734;9.152;2022-09-27T02:28:26;10.30;99.90
947;DHT22;460;48.734;9.152;2022-09-27T02:30:54;10.20;99.90
947;DHT22;460;48.734;9.152;2022-09-27T02:33:27;10.10;99.90
947;DHT22;460;48.734;9.152;2022-09-27T02:35:55;10.20;99.90
947;DHT22;460;48.734;9.152;2022-09-27T02:38:23;10.20;99.90
947;DHT22;460;48.734;9.152;2022-09-27T02:40:50;10.20;99.90
947;DHT22;460;48.734;9.152;2022-09-27T02:43:19;10.10;99.90
947;DHT22;460;48.734;9.152;2022-09-27T02:45:56;10.10;99.90
947;DHT22;460;48.734;9.152;2022-09-27T02:48:34;10.00;99.90
947;DHT22;460;48.734;9.152;2022-09-27T02:51:16;10.10;99.90
947;DHT22;460;48.734;9.152;2022-09-27T02:53:58;10.00;99.90
947;DHT22;460;48.734;9.152;2022-09-27T02:56:34;9.90;99.90
947;DHT22;460;48.734;9.152;2022-09-27T02:59:11;9.80;99.90
947;DHT22;460;48.734;9.152;2022-09-27T03:01:45;9.80;99.90
947;DHT22;460;48.734;9.152;2022-09-27T03:04:19;9.80;99.90
947;DHT22;460;48.734;9.152;2022-09-27T03:06:50;9.70;99.90
947;DHT22;460;48.734;9.152;2022-09-27T03:09:18;9.80;99.90
947;DHT22;460;48.734;9.152;2022-09-27T03:11:45;9.60;99.90
947;DHT22;460;48.734;9.152;2022-09-27T03:14:12;9.70;99.90
947;DHT22;460;48.734;9.152;2022-09-27T03:16:39;9.60;99.90
947;DHT22;460;48.734;9.152;2022-09-27T03:19:06;9.60;99.90
947;DHT22;460;48.734;9.152;2022-09-27T03:21:34;9.60;99.90
947;DHT22;460;48.734;9.152;2022-09-27T03:24:02;9.60;99.90
947;DHT22;460;48.734;9.152;2022-09-27T03:26:28;9.50;99.90
947;DHT22;460;48.734;9.152;2022-09-27T03:28:55;9.50;99.90
947;DHT22;460;48.734;9.152;2022-09-27T03:31:22;9.40;99.90
947;DHT22;460;48.734;9.152;2022-09-27T03:33:49;9.40;99.90
947;DHT22;460;48.734;9.152;2022-09-27T03:36:16;9.40;99.90
947;DHT22;460;48.734;9.152;2022-09-27T03:38:44;9.40;99.90
947;DHT22;460;48.734;9.152;2022-09-27T03:41:11;9.40;99.90
947;DHT22;460;48.734;9.152;2022-09-27T03:43:38;9.40;99.90
947;DHT22;460;48.734;9.152;2022-09-27T03:46:06;9.40;99.90
947;DHT22;460;48.734;9.152;2022-09-27T03:48:32;9.40;99.90
947;DHT22;460;48.734;9.152;2022-09-27T03:50:59;9.40;99.90
947;DHT22;460;48.734;9.152;2022-09-27T03:53:26;9.40;99.90
947;DHT22;460;48.734;9.152;2022-09-27T03:55:54;9.40;99.90
947;DHT22;460;48.734;9.152;2022-09-27T03:58:21;9.40;99.90
947;DHT22;460;48.734;9.152;2022-09-27T04:00:48;9.40;99.90
947;DHT22;460;48.734;9.152;2022-09-27T04:03:15;9.40;99.90
947;DHT22;460;48.734;9.152;2022-09-27T04:05:44;9.40;99.90
947;DHT22;460;48.734;9.152;2022-09-27T04:08:11;9.40;99.90
947;DHT22;460;48.734;9.152;2022-09-27T04:10:38;9.40;99.90
947;DHT22;460;48.734;9.152;2022-09-27T04:13:07;9.40;99.90
947;DHT22;460;48.734;9.152;2022-09-27T04:15:33;9.40;99.90
947;DHT22;460;48.734;9.152;2022-09-27T04:18:00;9.30;99.90
947;DHT22;460;48.734;9.152;2022-09-27T04:20:27;9.40;99.90
947;DHT22;460;48.734;9.152;2022-09-27T04:22:54;9.40;99.90
947;DHT22;460;48.734;9.152;2022-09-27T04:25:21;9.50;99.90
947;DHT22;460;48.734;9.152;2022-09-27T04:27:48;9.50;99.90
947;DHT22;460;48.734;9.152;2022-09-27T04:30:18;9.50;99.90
947;DHT22;460;48.734;9.152;2022-09-27T04:32:45;9.50;99.90
947;DHT22;460;48.734;9.152;2022-09-27T04:35:12;9.50;99.90
947;DHT22;460;48.734;9.152;2022-09-27T04:37:58;9.50;99.90
947;DHT22;460;48.734;9.152;2022-09-27T04:40:25;9.50;99.90
947;DHT22;460;48.734;9.152;2022-09-27T04:42:52;9.50;99.90
947;DHT22;460;48.734;9.152;2022-09-27T04:45:20;9.60;99.90
947;DHT22;460;48.734;9.152;2022-09-27T04:47:49;9.60;99.90
947;DHT22;460;48.734;9.152;2022-09-27T04:50:17;9.50;99.90
947;DHT22;460;48.734;9.152;2022-09-27T04:52:49;9.50;99.90
947;DHT22;460;48.734;9.152;2022-09-27T04:55:17;9.60;99.90
947;DHT22;460;48.734;9.152;2022-09-27T04:57:44;9.50;99.90
947;DHT22;460;48.734;9.152;2022-09-27T05:00:12;9.50;99.90
947;DHT22;460;48.734;9.152;2022-09-27T05:02:41;9.40;99.90
947;DHT22;460;48.734;9.152;2022-09-27T05:05:08;9.50;99.90
947;DHT22;460;48.734;9.152;2022-09-27T05:07:36;9.60;99.90
947;DHT22;460;48.734;9.152;2022-09-27T05:10:07;9.60;99.90
947;DHT22;460;48.734;9.152;2022-09-27T05:12:34;9.60;99.90
947;DHT22;460;48.734;9.152;2022-09-27T05:15:01;9.50;99.90
947;DHT22;460;48.734;9.152;2022-09-27T05:17:32;9.50;99.90
947;DHT22;460;48.734;9.152;2022-09-27T05:20:00;9.60;99.90
947;DHT22;460;48.734;9.152;2022-09-27T05:22:27;9.60;99.90
947;DHT22;460;48.734;9.152;2022-09-27T05:24:54;9.50;99.90
947;DHT22;460;48.734;9.152;2022-09-27T05:27:21;9.60;99.90
947;DHT22;460;48.734;9.152;2022-09-27T05:29:48;9.50;99.90
947;DHT22;460;48.734;9.152;2022-09-27T05:32:15;9.50;99.90
947;DHT22;460;48.734;9.152;2022-09-27T05:34:42;9.60;99.90
947;DHT22;460;48.734;9.152;2022-09-27T05:37:10;9.60;99.90
947;DHT22;460;48.734;9.152;2022-09-27T05:39:37;9.50;99.90
947;DHT22;460;48.734;9.152;2022-09-27T05:42:04;9.60;99.90
947;DHT22;460;48.734;9.152;2022-09-27T05:44:32;9.50;99.90
947;DHT22;460;48.734;9.152;2022-09-27T05:47:00;9.40;99.90
947;DHT22;460;48.734;9.152;2022-09-27T05:49:28;9.50;99.90
947;DHT22;460;48.734;9.152;2022-09-27T05:51:55;9.40;99.90
947;DHT22;460;48.734;9.152;2022-09-27T05:54:23;9.40;99.90
947;DHT22;460;48.734;9.152;2022-09-27T05:56:53;9.50;99.90
947;DHT22;460;48.734;9.152;2022-09-27T05:59:23;9.50;99.90
947;DHT22;460;48.734;9.152;2022-09-27T06:01:51;9.50;99.90
947;DHT22;460;48.734;9.152;2022-09-27T06:04:18;9.50;99.90
947;DHT22;460;48.734;9.152;2022-09-27T06:06:45;9.50;99.90
947;DHT22;460;48.734;9.152;2022-09-27T06:09:13;9.40;99.90
947;DHT22;460;48.734;9.152;2022-09-27T06:11:43;9.40;99.90
947;DHT22;460;48.734;9.152;2022-09-27T06:14:10;9.40;99.90
947;DHT22;460;48.734;9.152;2022-09-27T06:16:37;9.50;99.90
947;DHT22;460;48.734;9.152;2022-09-27T06:19:04;9.40;99.90
947;DHT22;460;48.734;9.152;2022-09-27T06:21:31;9.50;99.90
947;DHT22;460;48.734;9.152;2022-09-27T06:23:58;9.50;99.90
947;DHT22;460;48.734;9.152;2022-09-27T06:26:25;9.60;99.90
947;DHT22;460;48.734;9.152;2022-09-27T06:28:54;9.60;99.90
947;DHT22;460;48.734;9.152;2022-09-27T06:31:21;9.50;99.90
947;DHT22;460;48.734;9.152;2022-09-27T06:33:48;9.60;99.90
947;DHT22;460;48.734;9.152;2022-09-27T06:36:15;9.50;99.90
947;DHT22;460;48.734;9.152;2022-09-27T06:38:42;9.50;99.90
947;DHT22;460;48.734;9.152;2022-09-27T06:41:11;9.70;99.90
947;DHT22;460;48.734;9.152;2022-09-27T06:43:39;9.70;99.90
947;DHT22;460;48.734;9.152;2022-09-27T06:46:08;9.60;99.90
947;DHT22;460;48.734;9.152;2022-09-27T06:48:35;9.60;99.90
947;DHT22;460;48.734;9.152;2022-09-27T06:51:03;9.60;99.90
947;DHT22;460;48.734;9.152;2022-09-27T06:53:30;9.50;99.90
947;DHT22;460;48.734;9.152;2022-09-27T06:55:58;9.50;99.90
947;DHT22;460;48.734;9.152;2022-09-27T06:58:25;9.40;99.90
947;DHT22;460;48.734;9.152;2022-09-27T07:01:11;9.50;99.90
947;DHT22;460;48.734;9.152;2022-09-27T07:03:39;9.50;99.90
947;DHT22;460;48.734;9.152;2022-09-27T07:06:14;9.60;99.90
947;DHT22;460;48.734;9.152;2022-09-27T07:08:41;9.60;99.90
947;DHT22;460;48.734;9.152;2022-09-27T07:11:08;9.60;99.90
947;DHT22;460;48.734;9.152;2022-09-27T07:13:35;9.60;99.90
947;DHT22;460;48.734;9.152;2022-09-27T07:16:07;9.60;99.90
947;DHT22;460;48.734;9.152;2022-09-27T07:18:37;9.70;99.90
947;DHT22;460;48.734;9.152;2022-09-27T07:21:04;9.60;99.90
947;DHT22;460;48.734;9.152;2022-09-27T07:23:33;9.60;99.90
947;DHT22;460;48.734;9.152;2022-09-27T07:26:00;9.70;99.90
947;DHT22;460;48.734;9.152;2022-09-27T07:28:32;9.70;99.90
947;DHT22;460;48.734;9.152;2022-09-27T07:30:59;9.70;99.90
947;DHT22;460;48.734;9.152;2022-09-27T07:33:27;9.80;99.90
947;DHT22;460;48.734;9.152;2022-09-27T07:35:56;9.70;99.90
947;DHT22;460;48.734;9.152;2022-09-27T07:38:22;9.70;99.90
947;DHT22;460;48.734;9.152;2022-09-27T07:40:50;9.70;99.90
947;DHT22;460;48.734;9.152;2022-09-27T07:43:17;9.60;99.90
947;DHT22;460;48.734;9.152;2022-09-27T07:45:44;9.70;99.90
947;DHT22;460;48.734;9.152;2022-09-27T07:48:13;9.70;99.90
947;DHT22;460;48.734;9.152;2022-09-27T07:50:40;9.80;99.90
947;DHT22;460;48.734;9.152;2022-09-27T07:53:08;9.70;99.90
947;DHT22;460;48.734;9.152;2022-09-27T07:55:37;9.70;99.90
947;DHT22;460;48.734;9.152;2022-09-27T07:58:07;9.70;99.90
947;DHT22;460;48.734;9.152;2022-09-27T08:00:35;9.70;99.90
947;DHT22;460;48.734;9.152;2022-09-27T08:03:06;9.70;99.90
947;DHT22;460;48.734;9.152;2022-09-27T08:05:34;9.90;99.90
947;DHT22;460;48.734;9.152;2022-09-27T08:08:01;9.90;99.90
947;DHT22;460;48.734;9.152;2022-09-27T08:10:30;9.90;99.90
947;DHT22;460;48.734;9.152;2022-09-27T08:12:58;9.90;99.90
947;DHT22;460;48.734;9.152;2022-09-27T08:15:28;9.80;99.90
947;DHT22;460;48.734;9.152;2022-09-27T08:17:55;9.80;99.90
947;DHT22;460;48.734;9.152;2022-09-27T08:20:22;9.80;99.90
947;DHT22;460;48.734;9.152;2022-09-27T08:22:49;9.90;99.90
947;DHT22;460;48.734;9.152;2022-09-27T08:25:16;10.00;99.90
947;DHT22;460;48.734;9.152;2022-09-27T08:27:53;10.00;99.90
947;DHT22;460;48.734;9.152;2022-09-27T08:30:20;10.00;99.90
947;DHT22;460;48.734;9.152;2022-09-27T08:32:47;10.10;99.90
947;DHT22;460;48.734;9.152;2022-09-27T08:35:14;10.20;99.90
947;DHT22;460;48.734;9.152;2022-09-27T08:37:41;10.30;99.90
947;DHT22;460;48.734;9.152;2022-09-27T08:40:13;10.30;99.90
947;DHT22;460;48.734;9.152;2022-09-27T08:42:48;10.20;99.90
947;DHT22;460;48.734;9.152;2022-09-27T08:45:25;10.20;99.90
947;DHT22;460;48.734;9.152;2022-09-27T08:47:56;10.20;99.90
947;DHT22;460;48.734;9.152;2022-09-27T08:50:27;10.20;99.90
947;DHT22;460;48.734;9.152;2022-09-27T08:52:57;10.20;99.90
947;DHT22;460;48.734;9.152;2022-09-27T08:55:31;10.10;99.90
947;DHT22;460;48.734;9.152;2022-09-27T08:58:08;10.10;99.90
947;DHT22;460;48.734;9.152;2022-09-27T09:00:38;10.10;99.90
947;DHT22;460;48.734;9.152;2022-09-27T09:03:09;10.20;99.90
947;DHT22;460;48.734;9.152;2022-09-27T09:05:50;10.30;99.90
947;DHT22;460;48.734;9.152;2022-09-27T09:08:28;10.40;99.90
947;DHT22;460;48.734;9.152;2022-09-27T09:11:01;10.50;99.90
947;DHT22;460;48.734;9.152;2022-09-27T09:16:58;10.70;99.90
947;DHT22;460;48.734;9.152;2022-09-27T09:19:45;10.90;99.90
947;DHT22;460;48.734;9.152;2022-09-27T09:22:29;11.00;99.90
947;DHT22;460;48.734;9.152;2022-09-27T09:25:10;11.10;99.90
947;DHT22;460;48.734;9.152;2022-09-27T09:27:46;11.20;99.90
947;DHT22;460;48.734;9.152;2022-09-27T09:30:20;11.30;99.90
947;DHT22;460;48.734;9.152;2022-09-27T09:33:01;11.40;99.90
947;DHT22;460;48.734;9.152;2022-09-27T09:35:38;11.50;99.70
947;DHT22;460;48.734;9.152;2022-09-27T09:38:10;11.70;99.90
947;DHT22;460;48.734;9.152;2022-09-27T09:40:42;11.80;98.70
947;DHT22;460;48.734;9.152;2022-09-27T09:43:16;11.80;99.20
947;DHT22;460;48.734;9.152;2022-09-27T09:45:49;12.00;99.10
947;DHT22;460;48.734;9.152;2022-09-27T09:48:31;11.90;97.40
947;DHT22;460;48.734;9.152;2022-09-27T09:51:05;11.90;97.40
947;DHT22;460;48.734;9.152;2022-09-27T09:53:39;11.70;96.80
947;DHT22;460;48.734;9.152;2022-09-27T09:56:13;11.80;97.20
947;DHT22;460;48.734;9.152;2022-09-27T09:58:45;11.80;96.80
947;DHT22;460;48.734;9.152;2022-09-27T10:01:18;11.70;97.00
947;DHT22;460;48.734;9.152;2022-09-27T10:03:47;11.80;96.70
947;DHT22;460;48.734;9.152;2022-09-27T10:06:15;11.90;96.10
947;DHT22;460;48.734;9.152;2022-09-27T10:08:43;11.90;96.60
947;DHT22;460;48.734;9.152;2022-09-27T10:11:18;12.00;97.20
947;DHT22;460;48.734;9.152;2022-09-27T10:13:45;12.00;97.00
947;DHT22;460;48.734;9.152;2022-09-27T10:16:16;12.20;96.90
947;DHT22;460;48.734;9.152;2022-09-27T10:18:44;12.50;97.10
947;DHT22;460;48.734;9.152;2022-09-27T10:21:16;12.60;95.90
947;DHT22;460;48.734;9.152;2022-09-27T10:24:06;12.60;95.80
947;DHT22;460;48.734;9.152;2022-09-27T10:26:35;12.40;95.90
947;DHT22;460;48.734;9.152;2022-09-27T10:29:24;12.20;95.80
947;DHT22;460;48.734;9.152;2022-09-27T10:31:56;12.10;95.80
947;DHT22;460;48.734;9.152;2022-09-27T10:34:27;11.90;95.00
947;DHT22;460;48.734;9.152;2022-09-27T10:37:15;11.90;95.80
947;DHT22;460;48.734;9.152;2022-09-27T10:39:44;11.90;95.00
947;DHT22;460;48.734;9.152;2022-09-27T10:42:22;11.90;95.80
947;DHT22;460;48.734;9.152;2022-09-27T10:44:56;12.10;95.50
947;DHT22;460;48.734;9.152;2022-09-27T10:47:24;12.10;95.80
947;DHT22;460;48.734;9.152;2022-09-27T10:49:52;12.20;95.00
947;DHT22;460;48.734;9.152;2022-09-27T10:52:28;12.20;95.10
947;DHT22;460;48.734;9.152;2022-09-27T10:54:57;12.30;95.40
947;DHT22;460;48.734;9.152;2022-09-27T10:57:26;12.30;94.40
947;DHT22;460;48.734;9.152;2022-09-27T10:59:55;12.30;94.90
947;DHT22;460;48.734;9.152;2022-09-27T11:02:27;12.10;95.00
947;DHT22;460;48.734;9.152;2022-09-27T11:05:07;12.20;96.10
947;DHT22;460;48.734;9.152;2022-09-27T11:07:36;12.30;95.40
947;DHT22;460;48.734;9.152;2022-09-27T11:10:21;12.20;95.40
947;DHT22;460;48.734;9.152;2022-09-27T11:13:10;12.20;95.60
947;DHT22;460;48.734;9.152;2022-09-27T11:15:51;12.10;94.80
947;DHT22;460;48.734;9.152;2022-09-27T11:18:29;12.10;96.10
947;DHT22;460;48.734;9.152;2022-09-27T11:21:06;12.20;95.80
947;DHT22;460;48.734;9.152;2022-09-27T11:24:05;12.30;94.90
947;DHT22;460;48.734;9.152;2022-09-27T11:26:44;12.30;94.20
947;DHT22;460;48.734;9.152;2022-09-27T11:29:24;12.30;93.70
947;DHT22;460;48.734;9.152;2022-09-27T11:32:11;12.20;93.30
947;DHT22;460;48.734;9.152;2022-09-27T11:35:00;12.30;94.20
947;DHT22;460;48.734;9.152;2022-09-27T11:37:39;12.30;94.10
947;DHT22;460;48.734;9.152;2022-09-27T11:40:16;12.40;94.00
947;DHT22;460;48.734;9.152;2022-09-27T11:45:51;12.20;94.50
947;DHT22;460;48.734;9.152;2022-09-27T11:48:31;12.20;94.00
947;DHT22;460;48.734;9.152;2022-09-27T11:54:14;12.30;95.60
947;DHT22;460;48.734;9.152;2022-09-27T11:56:51;12.40;95.50
947;DHT22;460;48.734;9.152;2022-09-27T11:59:48;12.40;95.90
947;DHT22;460;48.734;9.152;2022-09-27T12:02:33;12.60;95.90
947;DHT22;460;48.734;9.152;2022-09-27T12:05:19;12.50;95.50
947;DHT22;460;48.734;9.152;2022-09-27T12:08:15;12.70;95.90
947;DHT22;460;48.734;9.152;2022-09-27T12:10:47;12.80;95.60
947;DHT22;460;48.734;9.152;2022-09-27T12:13:21;12.70;95.70
947;DHT22;460;48.734;9.152;2022-09-27T12:15:50;12.70;95.50
947;DHT22;460;48.734;9.152;2022-09-27T12:18:23;12.80;95.90
947;DHT22;460;48.734;9.152;2022-09-27T12:20:53;12.80;96.20
947;DHT22;460;48.734;9.152;2022-09-27T12:23:28;12.80;95.40
947;DHT22;460;48.734;9.152;2022-09-27T12:27:17;12.80;95.50
947;DHT22;460;48.734;9.152;2022-09-27T12:29:14;12.50;95.60
947;DHT22;460;48.734;9.152;2022-09-27T12:32:00;12.30;97.00
947;DHT22;460;48.734;9.152;2022-09-27T12:34:38;12.20;98.40
947;DHT22;460;48.734;9.152;2022-09-27T12:37:10;12.30;97.90
947;DHT22;460;48.734;9.152;2022-09-27T12:39:59;12.20;98.30
947;DHT22;460;48.734;9.152;2022-09-27T12:42:53;12.20;98.40
947;DHT22;460;48.734;9.152;2022-09-27T12:45:32;12.10;99.00
947;DHT22;460;48.734;9.152;2022-09-27T12:48:11;12.00;99.00
947;DHT22;460;48.734;9.152;2022-09-27T12:50:43;12.00;99.70
947;DHT22;460;48.734;9.152;2022-09-27T12:53:14;12.00;99.50
947;DHT22;460;48.734;9.152;2022-09-27T12:59:23;11.90;99.10
947;DHT22;460;48.734;9.152;2022-09-27T13:05:13;12.00;99.90
947;DHT22;460;48.734;9.152;2022-09-27T13:07:52;12.10;99.50
947;DHT22;460;48.734;9.152;2022-09-27T13:10:37;12.20;99.90
947;DHT22;460;48.734;9.152;2022-09-27T13:13:09;12.30;99.50
947;DHT22;460;48.734;9.152;2022-09-27T13:15:40;12.20;99.40
947;DHT22;460;48.734;9.152;2022-09-27T13:18:29;12.30;99.50
947;DHT22;460;48.734;9.152;2022-09-27T13:20:56;12.40;99.50
947;DHT22;460;48.734;9.152;2022-09-27T13:23:56;12.30;99.50
947;DHT22;460;48.734;9.152;2022-09-27T13:26:49;12.30;99.40
947;DHT22;460;48.734;9.152;2022-09-27T13:29:28;12.20;98.60
947;DHT22;460;48.734;9.152;2022-09-27T13:32:25;12.10;98.40
947;DHT22;460;48.734;9.152;2022-09-27T13:34:54;12.00;98.30
947;DHT22;460;48.734;9.152;2022-09-27T13:37:51;12.00;98.10
947;DHT22;460;48.734;9.152;2022-09-27T13:40:30;12.10;97.80
947;DHT22;460;48.734;9.152;2022-09-27T13:43:33;12.00;98.50
947;DHT22;460;48.734;9.152;2022-09-27T13:46:03;11.90;98.60
947;DHT22;460;48.734;9.152;2022-09-27T13:48:44;11.90;98.60
947;DHT22;460;48.734;9.152;2022-09-27T13:51:20;12.00;99.20
947;DHT22;460;48.734;9.152;2022-09-27T13:53:58;12.10;98.40
947;DHT22;460;48.734;9.152;2022-09-27T13:56:48;12.20;98.60
947;DHT22;460;48.734;9.152;2022-09-27T13:59:17;12.20;98.50
947;DHT22;460;48.734;9.152;2022-09-27T14:01:49;12.20;97.40
947;DHT22;460;48.734;9.152;2022-09-27T14:04:21;12.30;96.90
947;DHT22;460;48.734;9.152;2022-09-27T14:06:53;12.40;96.50
947;DHT22;460;48.734;9.152;2022-09-27T14:09:26;12.40;96.30
947;DHT22;460;48.734;9.152;2022-09-27T14:11:57;12.30;96.10
947;DHT22;460;48.734;9.152;2022-09-27T14:14:27;12.00;96.60
947;DHT22;460;48.734;9.152;2022-09-27T14:16:56;12.00;97.80
947;DHT22;460;48.734;9.152;2022-09-27T14:19:25;12.00;99.10
947;DHT22;460;48.734;9.152;2022-09-27T14:21:53;11.80;99.60
947;DHT22;460;48.734;9.152;2022-09-27T14:24:27;11.70;99.90
947;DHT22;460;48.734;9.152;2022-09-27T14:27:12;11.60;99.90
947;DHT22;460;48.734;9.152;2022-09-27T14:29:42;11.30;99.90
947;DHT22;460;48.734;9.152;2022-09-27T14:32:12;11.00;99.90
947;DHT22;460;48.734;9.152;2022-09-27T14:34:42;10.90;99.90
947;DHT22;460;48.734;9.152;2022-09-27T14:37:22;11.00;99.90
947;DHT22;460;48.734;9.152;2022-09-27T14:39:53;10.90;99.90
947;DHT22;460;48.734;9.152;2022-09-27T14:42:22;10.80;99.90
947;DHT22;460;48.734;9.152;2022-09-27T14:44:51;10.80;99.90
947;DHT22;460;48.734;9.152;2022-09-27T14:47:23;10.80;99.90
947;DHT22;460;48.734;9.152;2022-09-27T14:49:55;10.80;99.90
947;DHT22;460;48.734;9.152;2022-09-27T14:52:24;10.70;99.90
947;DHT22;460;48.734;9.152;2022-09-27T14:54:58;10.70;99.90
947;DHT22;460;48.734;9.152;2022-09-27T14:57:27;10.80;99.90
947;DHT22;460;48.734;9.152;2022-09-27T14:59:55;10.80;99.90
947;DHT22;460;48.734;9.152;2022-09-27T15:02:24;10.90;99.90
947;DHT22;460;48.734;9.152;2022-09-27T15:04:54;11.10;99.90
947;DHT22;460;48.734;9.152;2022-09-27T15:07:21;11.20;99.90
947;DHT22;460;48.734;9.152;2022-09-27T15:09:49;11.20;98.60
947;DHT22;460;48.734;9.152;2022-09-27T15:12:22;11.40;98.80
947;DHT22;460;48.734;9.152;2022-09-27T15:14:52;11.40;97.90
947;DHT22;460;48.734;9.152;2022-09-27T15:17:20;11.40;96.90
947;DHT22;460;48.734;9.152;2022-09-27T15:19:59;11.40;96.70
947;DHT22;460;48.734;9.152;2022-09-27T15:22:36;11.50;96.90
947;DHT22;460;48.734;9.152;2022-09-27T15:25:15;11.50;96.00
947;DHT22;460;48.734;9.152;2022-09-27T15:27:47;11.40;95.60
947;DHT22;460;48.734;9.152;2022-09-27T15:30:17;11.50;96.70
947;DHT22;460;48.734;9.152;2022-09-27T15:32:48;11.30;95.60
947;DHT22;460;48.734;9.152;2022-09-27T15:35:21;11.30;95.90
947;DHT22;460;48.734;9.152;2022-09-27T15:37:49;11.30;95.70
947;DHT22;460;48.734;9.152;2022-09-27T15:40:56;11.20;96.40
947;DHT22;460;48.734;9.152;2022-09-27T15:43:27;11.20;96.30
947;DHT22;460;48.734;9.152;2022-09-27T15:45:57;11.20;96.00
947;DHT22;460;48.734;9.152;2022-09-27T15:48:27;11.10;96.10
947;DHT22;460;48.734;9.152;2022-09-27T15:50:55;11.10;96.60
947;DHT22;460;48.734;9.152;2022-09-27T15:53:43;11.20;96.30
947;DHT22;460;48.734;9.152;2022-09-27T15:56:13;11.20;96.90
947;DHT22;460;48.734;9.152;2022-09-27T15:58:41;11.20;96.10
947;DHT22;460;48.734;9.152;2022-09-27T16:01:18;10.30;95.60
947;DHT22;460;48.734;9.152;2022-09-27T16:03:49;11.10;96.30
947;DHT22;460;48.734;9.152;2022-09-27T16:06:17;11.10;94.30
947;DHT22;460;48.734;9.152;2022-09-27T16:08:44;11.20;94.80
947;DHT22;460;48.734;9.152;2022-09-27T16:11:14;11.10;95.30
947;DHT22;460;48.734;9.152;2022-09-27T16:13:41;11.10;95.20
947;DHT22;460;48.734;9.152;2022-09-27T16:16:15;11.10;93.40
947;DHT22;460;48.734;9.152;2022-09-27T16:18:43;11.10;94.00
947;DHT22;460;48.734;9.152;2022-09-27T16:21:10;11.00;93.50
947;DHT22;460;48.734;9.152;2022-09-27T16:23:39;10.90;92.90
947;DHT22;460;48.734;9.152;2022-09-27T16:26:06;11.00;93.70
947;DHT22;460;48.734;9.152;2022-09-27T16:28:33;11.00;93.80
947;DHT22;460;48.734;9.152;2022-09-27T16:31:01;10.90;93.50
947;DHT22;460;48.734;9.152;2022-09-27T16:33:29;11.00;93.60
947;DHT22;460;48.734;9.152;2022-09-27T16:35:57;11.00;93.80
947;DHT22;460;48.734;9.152;2022-09-27T16:38:26;11.00;93.60
947;DHT22;460;48.734;9.152;2022-09-27T16:41:00;11.00;93.80
947;DHT22;460;48.734;9.152;2022-09-27T16:43:28;10.90;94.10
947;DHT22;460;48.734;9.152;2022-09-27T16:46:03;11.00;94.70
947;DHT22;460;48.734;9.152;2022-09-27T16:48:30;10.90;94.20
947;DHT22;460;48.734;9.152;2022-09-27T16:51:02;10.80;94.30
947;DHT22;460;48.734;9.152;2022-09-27T16:53:46;10.80;95.00
947;DHT22;460;48.734;9.152;2022-09-27T16:56:17;10.80;94.70
947;DHT22;460;48.734;9.152;2022-09-27T16:58:45;10.80;94.70
947;DHT22;460;48.734;9.152;2022-09-27T17:01:12;10.70;94.90
947;DHT22;460;48.734;9.152;2022-09-27T17:03:40;10.80;94.80
947;DHT22;460;48.734;9.152;2022-09-27T17:06:07;10.70;94.40
947;DHT22;460;48.734;9.152;2022-09-27T17:08:34;10.80;94.90
947;DHT22;460;48.734;9.152;2022-09-27T17:11:01;10.70;94.60
947;DHT22;460;48.734;9.152;2022-09-27T17:13:29;10.60;94.90
947;DHT22;460;48.734;9.152;2022-09-27T17:15:56;10.60;95.30
947;DHT22;460;48.734;9.152;2022-09-27T17:18:23;10.60;95.60
947;DHT22;460;48.734;9.152;2022-09-27T17:20:49;10.50;95.00
947;DHT22;460;48.734;9.152;2022-09-27T17:23:17;10.70;95.00
947;DHT22;460;48.734;9.152;2022-09-27T17:25:44;10.60;95.00
947;DHT22;460;48.734;9.152;2022-09-27T17:28:11;10.50;95.00
947;DHT22;460;48.734;9.152;2022-09-27T17:30:39;10.40;94.90
947;DHT22;460;48.734;9.152;2022-09-27T17:33:09;10.40;95.80